createdAt,value
2019-03-04T00:02:24.599Z,99078.03
2019-03-04T00:04:59.157Z,99080.75
2019-03-04T00:07:33.476Z,99073.97
2019-03-04T00:10:07.836Z,99080.22
2019-03-04T00:12:42.102Z,99078.78
2019-03-04T00:15:16.317Z,99077.72
2019-03-04T00:17:50.455Z,99085.85
2019-03-04T00:20:24.630Z,99095.88
2019-03-04T00:22:58.759Z,99100.48
2019-03-04T00:25:33.101Z,99101.52
2019-03-04T00:28:07.402Z,99106.63
2019-03-04T00:30:41.750Z,99114.22
2019-03-04T00:33:16.081Z,99113.08
2019-03-04T00:35:51.128Z,99108.19
2019-03-04T00:38:25.512Z,99117.15
2019-03-04T00:40:59.460Z,99118.50
2019-03-04T00:43:33.823Z,99122.28
2019-03-04T00:46:08.124Z,99124.67
2019-03-04T00:48:43.505Z,99115.19
2019-03-04T00:51:17.647Z,99130.42
2019-03-04T00:53:52.066Z,99127.06
2019-03-04T00:56:26.504Z,99136.56
2019-03-04T00:59:01.217Z,99129.45
2019-03-04T01:01:36.544Z,99130.81
2019-03-04T01:04:11.016Z,99130.81
2019-03-04T01:06:45.343Z,99123.21
2019-03-04T01:09:20.251Z,99122.06
2019-03-04T01:11:54.595Z,99125.31
2019-03-04T01:14:29.106Z,99135.62
2019-03-04T01:17:03.358Z,99125.81
2019-03-04T01:19:37.680Z,99133.95
2019-03-04T01:22:12.204Z,99138.55
2019-03-04T01:24:46.505Z,99139.37
2019-03-04T01:27:20.927Z,99132.30
2019-03-04T01:29:55.137Z,99129.06
2019-03-04T01:32:29.436Z,99128.52
2019-03-04T01:35:04.019Z,99131.45
2019-03-04T01:37:38.476Z,99138.55
2019-03-04T01:40:14.979Z,99129.27
2019-03-04T01:42:49.419Z,99137.41
2019-03-04T01:45:23.505Z,99147.22
2019-03-04T01:47:58.225Z,99157.42
2019-03-04T01:50:32.469Z,99155.03
2019-03-04T01:53:06.852Z,99160.14
2019-03-04T01:55:41.147Z,99160.34
2019-03-04T01:58:16.506Z,99175.27
2019-03-04T02:00:51.797Z,99182.86
2019-03-04T02:03:26.007Z,99182.57
2019-03-04T02:06:00.996Z,99186.93
2019-03-04T02:08:35.067Z,99189.56
2019-03-04T02:11:11.140Z,99197.98
2019-03-04T02:13:45.326Z,99202.05
2019-03-04T02:16:19.721Z,99206.33
2019-03-04T02:18:53.939Z,99212.17
2019-03-04T02:21:28.375Z,99220.84
2019-03-04T02:24:36.970Z,99210.49
2019-03-04T02:27:11.291Z,99215.92
2019-03-04T02:29:45.375Z,99221.98
2019-03-04T02:32:19.638Z,99221.78
2019-03-04T02:34:53.631Z,99232.52
2019-03-04T02:37:29.897Z,99237.94
2019-03-04T02:40:04.286Z,99243.03
2019-03-04T02:42:38.431Z,99242.74
2019-03-04T02:45:14.595Z,99247.84
2019-03-04T02:47:50.150Z,99250.55
2019-03-04T02:50:24.381Z,99247.84
2019-03-04T02:52:59.919Z,99253.27
2019-03-04T02:55:35.288Z,99254.63
2019-03-04T02:58:09.568Z,99265.79
2019-03-04T03:00:44.294Z,99260.87
2019-03-04T03:05:50.888Z,99257.33
2019-03-04T03:08:25.125Z,99266.22
2019-03-04T03:10:59.703Z,99268.09
2019-03-04T03:13:34.009Z,99263.91
2019-03-04T03:16:08.603Z,99265.38
2019-03-04T03:18:42.685Z,99269.98
2019-03-04T03:21:17.847Z,99280.20
2019-03-04T03:23:51.937Z,99286.33
2019-03-04T03:26:26.184Z,99274.54
2019-03-04T03:29:00.159Z,99272.56
2019-03-04T03:31:35.411Z,99278.70
2019-03-04T03:34:09.645Z,99289.55
2019-03-04T03:36:43.932Z,99291.22
2019-03-04T03:39:18.042Z,99296.44
2019-03-04T03:41:52.200Z,99298.13
2019-03-04T03:44:26.632Z,99302.19
2019-03-04T03:47:00.772Z,99298.13
2019-03-04T03:49:35.160Z,99286.42
2019-03-04T03:52:09.421Z,99294.73
2019-03-04T03:54:43.735Z,99296.41
2019-03-04T03:57:17.960Z,99289.42
2019-03-04T03:59:52.350Z,99293.20
2019-03-04T04:02:26.345Z,99291.84
2019-03-04T04:05:01.045Z,99291.31
2019-03-04T04:07:35.140Z,99293.49
2019-03-04T04:10:11.156Z,99294.11
2019-03-04T04:12:45.369Z,99299.30
2019-03-04T04:15:20.009Z,99292.23
2019-03-04T04:17:54.163Z,99296.30
2019-03-04T04:20:28.493Z,99298.36
2019-03-04T04:23:02.546Z,99295.84
2019-03-04T04:25:36.599Z,99292.31
2019-03-04T04:28:11.105Z,99295.52
2019-03-04T04:30:45.322Z,99292.52
2019-03-04T04:33:20.281Z,99287.59
2019-03-04T04:35:54.874Z,99284.59
2019-03-04T04:38:29.193Z,99291.66
2019-03-04T04:41:03.520Z,99301.80
2019-03-04T04:43:38.692Z,99291.45
2019-03-04T04:46:12.979Z,99292.43
2019-03-04T04:48:46.975Z,99295.97
2019-03-04T04:51:21.206Z,99298.27
2019-03-04T04:53:55.459Z,99303.28
2019-03-04T04:56:29.897Z,99299.50
2019-03-04T04:59:04.294Z,99299.09
2019-03-04T05:01:38.714Z,99297.94
2019-03-04T05:04:13.180Z,99299.30
2019-03-04T05:06:47.590Z,99291.66
2019-03-04T05:09:21.914Z,99289.69
2019-03-04T05:11:55.977Z,99284.88
2019-03-04T05:14:30.119Z,99280.44
2019-03-04T05:17:04.667Z,99280.23
2019-03-04T05:19:38.945Z,99279.70
2019-03-04T05:22:13.305Z,99275.64
2019-03-04T05:24:48.469Z,99269.69
2019-03-04T05:27:22.871Z,99269.06
2019-03-04T05:29:58.189Z,99253.42
2019-03-04T05:32:32.234Z,99248.53
2019-03-04T05:35:07.084Z,99254.98
2019-03-04T05:37:41.453Z,99255.52
2019-03-04T05:40:17.689Z,99253.63
2019-03-04T05:42:51.976Z,99245.28
2019-03-04T05:45:26.085Z,99245.49
2019-03-04T05:48:00.354Z,99245.28
2019-03-04T05:50:37.611Z,99239.25
2019-03-04T05:53:11.750Z,99237.36
2019-03-04T05:55:46.187Z,99241.75
2019-03-04T05:58:20.271Z,99230.91
2019-03-04T06:01:20.925Z,99234.16
2019-03-04T06:03:56.170Z,99233.00
2019-03-04T06:06:55.803Z,99225.69
2019-03-04T06:09:31.165Z,99219.24
2019-03-04T06:12:05.439Z,99214.11
2019-03-04T06:14:39.839Z,99205.77
2019-03-04T06:17:15.095Z,99199.20
2019-03-04T06:19:49.109Z,99196.70
2019-03-04T06:22:23.256Z,99197.23
2019-03-04T06:24:58.394Z,99188.78
2019-03-04T06:27:33.509Z,99190.12
2019-03-04T06:30:08.520Z,99192.34
2019-03-04T06:32:42.842Z,99198.80
2019-03-04T06:35:17.145Z,99191.81
2019-03-04T06:37:51.951Z,99192.22
2019-03-04T06:40:26.535Z,99182.84
2019-03-04T06:43:00.528Z,99175.24
2019-03-04T06:45:34.638Z,99165.22
2019-03-04T06:48:08.824Z,99168.26
2019-03-04T06:50:53.722Z,99175.03
2019-03-04T06:53:39.426Z,99178.80
2019-03-04T06:56:59.868Z,99184.83
2019-03-04T07:00:08.533Z,99180.77
2019-03-04T07:02:42.876Z,99166.92
2019-03-04T07:05:53.919Z,99159.28
2019-03-04T07:09:11.471Z,99155.22
2019-03-04T07:11:48.319Z,99158.05
2019-03-04T07:14:22.383Z,99138.14
2019-03-04T07:16:57.000Z,99132.92
2019-03-04T07:19:39.292Z,99132.62
2019-03-04T07:22:14.567Z,99129.38
2019-03-04T07:24:48.830Z,99126.02
2019-03-04T07:27:23.202Z,99125.83
2019-03-04T07:29:57.613Z,99120.08
2019-03-04T07:32:33.059Z,99112.69
2019-03-04T07:35:07.308Z,99110.27
2019-03-04T07:37:41.588Z,99107.67
2019-03-04T07:40:16.994Z,99104.53
2019-03-04T07:42:51.150Z,99103.29
2019-03-04T07:45:25.453Z,99098.08
2019-03-04T07:48:00.329Z,99092.34
2019-03-04T07:50:35.463Z,99074.42
2019-03-04T07:53:09.744Z,99075.14
2019-03-04T07:55:44.212Z,99069.00
2019-03-04T07:58:18.662Z,99064.61
2019-03-04T08:00:53.928Z,99058.05
2019-03-04T08:03:28.247Z,99057.19
2019-03-04T08:06:04.167Z,99067.53
2019-03-04T08:08:40.356Z,99063.68
2019-03-04T08:11:48.672Z,99059.61
2019-03-04T08:14:23.110Z,99052.62
2019-03-04T08:16:57.595Z,99040.09
2019-03-04T08:19:31.799Z,99038.21
2019-03-04T08:22:06.563Z,99027.90
2019-03-04T08:24:40.881Z,99023.83
2019-03-04T08:27:15.017Z,99021.12
2019-03-04T08:29:49.260Z,99017.05
2019-03-04T08:32:24.773Z,99014.34
2019-03-04T08:34:58.915Z,99010.59
2019-03-04T08:37:33.300Z,99009.13
2019-03-04T08:40:07.882Z,98992.86
2019-03-04T08:42:44.127Z,98994.50
2019-03-04T08:45:24.228Z,98991.91
2019-03-04T08:48:00.506Z,98996.29
2019-03-04T08:50:34.742Z,98989.19
2019-03-04T08:53:08.940Z,98984.91
2019-03-04T08:55:45.274Z,98977.09
2019-03-04T08:58:19.495Z,98975.73
2019-03-04T09:00:54.828Z,98967.59
2019-03-04T09:03:31.113Z,98979.80
2019-03-04T09:06:06.462Z,98974.38
2019-03-04T09:08:41.734Z,98967.81
2019-03-04T09:11:16.959Z,98959.78
2019-03-04T09:13:53.642Z,98946.33
2019-03-04T09:16:27.779Z,98936.30
2019-03-04T09:19:02.498Z,98939.33
2019-03-04T09:21:36.434Z,98926.27
2019-03-04T09:24:10.794Z,98935.27
2019-03-04T09:26:45.023Z,98931.20
2019-03-04T09:29:19.461Z,98918.14
2019-03-04T09:31:53.760Z,98921.70
2019-03-04T09:34:28.150Z,98927.73
2019-03-04T09:37:03.491Z,98922.31
2019-03-04T09:39:37.545Z,98909.89
2019-03-04T09:42:29.282Z,98897.18
2019-03-04T09:45:03.491Z,98894.25
2019-03-04T09:47:37.760Z,98891.62
2019-03-04T09:50:16.463Z,98884.14
2019-03-04T09:52:50.649Z,98891.42
2019-03-04T09:55:25.024Z,98886.62
2019-03-04T09:57:59.072Z,98887.97
2019-03-04T10:00:54.338Z,98879.55
2019-03-04T10:04:06.884Z,98878.70
2019-03-04T10:07:14.653Z,98873.05
2019-03-04T10:10:40.491Z,98862.20
2019-03-04T10:13:44.370Z,98861.92
2019-03-04T10:16:41.205Z,98859.81
2019-03-04T10:19:43.952Z,98861.17
2019-03-04T10:22:36.917Z,98857.41
2019-03-04T10:25:24.484Z,98854.70
2019-03-04T10:28:42.784Z,98858.55
2019-03-04T10:31:57.855Z,98853.45
2019-03-04T10:35:24.227Z,98852.91
2019-03-04T10:38:49.640Z,98847.27
2019-03-04T10:41:45.885Z,98849.44
2019-03-04T10:44:38.481Z,98844.02
2019-03-04T10:47:12.665Z,98852.79
2019-03-04T10:49:46.791Z,98853.61
2019-03-04T10:52:21.200Z,98852.03
2019-03-04T10:54:55.271Z,98855.81
2019-03-04T10:57:29.461Z,98854.45
2019-03-04T11:00:03.821Z,98856.41
2019-03-04T11:02:39.449Z,98855.06
2019-03-04T11:05:31.845Z,98858.91
2019-03-04T11:08:06.083Z,98853.17
2019-03-04T11:10:41.822Z,98852.95
2019-03-04T11:13:15.934Z,98857.90
2019-03-04T11:15:50.048Z,98853.30
2019-03-04T11:18:24.330Z,98858.00
2019-03-04T11:20:58.577Z,98841.94
2019-03-04T11:23:33.703Z,98839.01
2019-03-04T11:26:07.700Z,98842.00
2019-03-04T11:28:42.083Z,98844.21
2019-03-04T11:31:16.199Z,98839.61
2019-03-04T11:33:51.317Z,98838.25
2019-03-04T11:36:25.641Z,98842.64
2019-03-04T11:39:43.585Z,98830.94
2019-03-04T11:42:18.270Z,98834.81
2019-03-04T11:44:52.622Z,98830.80
2019-03-04T11:47:28.144Z,98823.52
2019-03-04T11:50:02.388Z,98827.27
2019-03-04T11:52:37.230Z,98826.23
2019-03-04T11:55:12.135Z,98826.83
2019-03-04T11:57:46.583Z,98825.79
2019-03-04T12:00:29.247Z,98823.89
2019-03-04T12:03:03.376Z,98828.28
2019-03-04T12:05:37.671Z,98830.77
2019-03-04T12:08:11.984Z,98820.95
2019-03-04T12:10:46.436Z,98825.88
2019-03-04T12:13:20.659Z,98829.73
2019-03-04T12:15:54.788Z,98838.47
2019-03-04T12:18:29.219Z,98833.58
2019-03-04T12:21:03.504Z,98841.18
2019-03-04T12:23:38.258Z,98842.03
2019-03-04T12:26:12.990Z,98847.23
2019-03-04T12:28:47.038Z,98851.31
2019-03-04T12:31:23.407Z,98854.84
2019-03-04T12:33:57.758Z,98860.59
2019-03-04T12:36:32.212Z,98862.26
2019-03-04T12:39:07.498Z,98866.83
2019-03-04T12:41:43.566Z,98876.96
2019-03-04T12:44:17.865Z,98884.56
2019-03-04T12:46:52.389Z,98878.92
2019-03-04T12:49:26.667Z,98878.92
2019-03-04T12:52:01.511Z,98880.81
2019-03-04T12:54:35.680Z,98882.45
2019-03-04T12:57:10.369Z,98884.12
2019-03-04T12:59:44.517Z,98878.16
2019-03-04T13:02:18.784Z,98885.27
2019-03-04T13:04:53.032Z,98888.29
2019-03-04T13:07:27.447Z,98891.00
2019-03-04T13:10:01.875Z,98900.94
2019-03-04T13:12:36.079Z,98897.28
2019-03-04T13:15:13.377Z,98900.41
2019-03-04T13:17:48.059Z,98900.12
2019-03-04T13:20:22.592Z,98902.39
2019-03-04T13:22:57.057Z,98902.70
2019-03-04T13:25:31.173Z,98902.39
2019-03-04T13:28:08.583Z,98901.55
2019-03-04T13:30:42.339Z,98908.33
2019-03-04T13:33:16.967Z,98917.83
2019-03-04T13:35:54.275Z,98915.75
2019-03-04T13:38:28.601Z,98912.50
2019-03-04T13:41:03.436Z,98921.65
2019-03-04T13:43:38.565Z,98917.89
2019-03-04T13:46:14.622Z,98924.23
2019-03-04T13:48:48.984Z,98929.00
2019-03-04T13:51:24.466Z,98930.36
2019-03-04T13:53:58.913Z,98930.80
2019-03-04T13:56:33.558Z,98928.30
2019-03-04T13:59:08.718Z,98927.17
2019-03-04T14:01:43.365Z,98927.70
2019-03-04T14:04:17.579Z,98923.63
2019-03-04T14:06:53.539Z,98923.92
2019-03-04T14:09:27.891Z,98931.55
2019-03-04T14:12:02.089Z,98932.60
2019-03-04T14:14:36.198Z,98936.14
2019-03-04T14:17:11.235Z,98938.34
2019-03-04T14:19:45.260Z,98948.77
2019-03-04T14:22:20.597Z,98947.50
2019-03-04T14:24:54.811Z,98955.02
2019-03-04T14:27:30.127Z,98955.02
2019-03-04T14:30:04.509Z,98953.66
2019-03-04T14:32:39.824Z,98962.13
2019-03-04T14:35:14.221Z,98969.73
2019-03-04T14:37:49.834Z,98975.48
2019-03-04T14:40:26.014Z,98978.50
2019-03-04T14:43:00.145Z,98977.47
2019-03-04T14:45:35.931Z,98980.18
2019-03-04T14:48:10.988Z,98980.47
2019-03-04T14:50:45.115Z,98985.45
2019-03-04T14:53:19.360Z,98981.60
2019-03-04T14:55:53.607Z,98985.67
2019-03-04T14:58:28.117Z,98988.92
2019-03-04T15:01:02.400Z,99006.04
2019-03-04T15:03:37.474Z,99001.97
2019-03-04T15:06:11.939Z,98998.11
2019-03-04T15:08:46.236Z,99004.69
2019-03-04T15:11:20.496Z,99013.15
2019-03-04T15:13:54.697Z,99017.54
2019-03-04T15:16:29.049Z,99023.47
2019-03-04T15:19:03.446Z,99043.94
2019-03-04T15:21:38.852Z,99053.45
2019-03-04T15:24:12.906Z,99050.95
2019-03-04T15:26:47.569Z,99045.52
2019-03-04T15:29:24.221Z,99039.77
2019-03-04T15:31:58.430Z,99047.09
2019-03-04T15:34:32.547Z,99043.02
2019-03-04T15:37:06.837Z,99038.63
2019-03-04T15:39:40.859Z,99020.76
2019-03-04T15:42:15.077Z,99012.80
2019-03-04T15:44:49.301Z,99011.66
2019-03-04T15:47:23.641Z,99024.11
2019-03-04T15:49:58.898Z,99042.90
2019-03-04T15:52:34.176Z,99021.98
2019-03-04T15:55:08.556Z,99021.48
2019-03-04T15:57:45.032Z,99035.89
2019-03-04T16:00:19.917Z,99045.93
2019-03-04T16:02:54.221Z,99053.64
2019-03-04T16:05:29.047Z,99059.77
2019-03-04T16:08:07.521Z,99055.19
2019-03-04T16:10:39.295Z,99045.87
2019-03-04T16:13:13.449Z,99040.75
2019-03-04T16:15:48.427Z,99032.70
2019-03-04T16:18:22.712Z,99038.26
2019-03-04T16:20:57.547Z,99045.52
2019-03-04T16:23:32.901Z,99043.78
2019-03-04T16:26:14.083Z,99042.11
2019-03-04T16:28:50.063Z,99050.04
2019-03-04T16:31:24.533Z,99050.26
2019-03-04T16:33:58.759Z,99053.30
2019-03-04T16:36:32.969Z,99058.73
2019-03-04T16:39:07.998Z,99057.37
2019-03-04T16:41:43.231Z,99066.02
2019-03-04T16:44:18.465Z,99079.48
2019-03-04T16:46:52.645Z,99094.05
2019-03-04T16:49:26.829Z,99122.86
2019-03-04T16:52:01.080Z,99121.28
2019-03-04T16:54:35.271Z,99120.34
2019-03-04T16:57:16.164Z,99126.91
2019-03-04T16:59:50.888Z,99125.55
2019-03-04T17:02:25.072Z,99115.72
2019-03-04T17:04:59.157Z,99100.49
2019-03-04T17:07:33.472Z,99082.30
2019-03-04T17:10:08.323Z,99071.90
2019-03-04T17:12:42.821Z,99070.64
2019-03-04T17:15:19.389Z,99070.95
2019-03-04T17:17:53.983Z,99068.20
2019-03-04T17:20:28.356Z,99074.36
2019-03-04T17:23:02.713Z,99075.85
2019-03-04T17:25:36.940Z,99070.86
2019-03-04T17:28:13.255Z,99065.52
2019-03-04T17:30:47.798Z,99071.27
2019-03-04T17:33:22.140Z,99079.11
2019-03-04T17:35:56.384Z,99077.97
2019-03-04T17:38:31.043Z,99086.94
2019-03-04T17:41:05.313Z,99091.02
2019-03-04T17:43:39.324Z,99096.45
2019-03-04T17:46:13.743Z,99086.50
2019-03-04T17:48:48.055Z,99085.14
2019-03-04T17:51:22.270Z,99078.34
2019-03-04T17:53:56.536Z,99079.20
2019-03-04T17:56:31.652Z,99087.26
2019-03-04T17:59:06.042Z,99098.28
2019-03-04T18:01:40.380Z,99104.26
2019-03-04T18:04:14.906Z,99100.41
2019-03-04T18:06:49.285Z,99104.38
2019-03-04T18:09:25.424Z,99113.67
2019-03-04T18:11:59.717Z,99119.11
2019-03-04T18:14:34.979Z,99112.03
2019-03-04T18:17:10.346Z,99119.11
2019-03-04T18:19:44.605Z,99106.75
2019-03-04T18:22:18.921Z,99098.95
2019-03-04T18:24:53.318Z,99095.17
2019-03-04T18:27:47.822Z,99088.78
2019-03-04T18:30:37.968Z,99079.63
2019-03-04T18:33:31.901Z,99080.93
2019-03-04T18:36:28.929Z,99076.09
2019-03-04T18:39:39.855Z,99081.39
2019-03-04T18:42:56.788Z,99082.22
2019-03-04T18:46:10.898Z,99074.28
2019-03-04T18:49:01.669Z,99074.00
2019-03-04T18:51:37.372Z,99075.83
2019-03-04T18:54:14.427Z,99079.04
2019-03-04T18:56:49.058Z,99073.63
2019-03-04T18:59:24.484Z,99070.00
2019-03-04T19:01:59.024Z,99075.90
2019-03-04T19:04:33.161Z,99083.47
2019-03-04T19:07:07.817Z,99089.67
2019-03-04T19:09:43.295Z,99096.89
2019-03-04T19:12:17.746Z,99096.08
2019-03-04T19:14:52.298Z,99089.95
2019-03-04T19:17:33.322Z,99086.19
2019-03-04T19:20:02.686Z,99089.61
2019-03-04T19:22:38.117Z,99079.17
2019-03-04T19:25:12.540Z,99084.38
2019-03-04T19:27:46.809Z,99092.53
2019-03-04T19:30:21.078Z,99088.31
2019-03-04T19:32:55.581Z,99087.15
2019-03-04T19:35:30.592Z,99081.11
2019-03-04T19:38:05.093Z,99074.00
2019-03-04T19:40:39.381Z,99059.89
2019-03-04T19:43:13.819Z,99055.95
2019-03-04T19:45:48.684Z,99053.23
2019-03-04T19:48:25.356Z,99054.50
2019-03-04T19:50:59.289Z,99046.14
2019-03-04T19:53:33.842Z,99057.67
2019-03-04T19:56:09.252Z,99059.14
2019-03-04T19:58:43.760Z,99057.28
2019-03-04T20:01:19.173Z,99055.37
2019-03-04T20:03:54.826Z,99054.55
2019-03-04T20:06:29.168Z,99051.73
2019-03-04T20:09:04.579Z,99048.89
2019-03-04T20:11:40.271Z,99044.72
2019-03-04T20:14:14.660Z,99037.91
2019-03-04T20:16:50.481Z,99032.91
2019-03-04T20:19:24.577Z,99033.62
2019-03-04T20:21:59.874Z,99036.23
2019-03-04T20:24:34.449Z,99037.00
2019-03-04T20:27:08.793Z,99042.59
2019-03-04T20:29:42.954Z,99043.28
2019-03-04T20:32:17.139Z,99051.13
2019-03-04T20:34:51.628Z,99040.64
2019-03-04T20:37:27.451Z,99045.27
2019-03-04T20:42:34.170Z,99047.53
2019-03-04T20:45:10.329Z,99054.84
2019-03-04T20:47:44.824Z,99045.48
2019-03-04T20:50:20.784Z,99044.72
2019-03-04T20:52:55.181Z,99039.11
2019-03-04T20:55:29.815Z,99034.30
2019-03-04T20:58:04.175Z,99038.97
2019-03-04T21:00:40.072Z,99039.03
2019-03-04T21:03:14.322Z,99037.91
2019-03-04T21:05:48.375Z,99031.69
2019-03-04T21:08:22.717Z,99031.72
2019-03-04T21:10:57.417Z,99021.92
2019-03-04T21:13:35.759Z,99020.84
2019-03-04T21:16:07.830Z,99014.23
2019-03-04T21:18:42.344Z,99014.89
2019-03-04T21:21:17.655Z,99019.36
2019-03-04T21:23:52.412Z,99013.33
2019-03-04T21:26:29.480Z,99010.61
2019-03-04T21:29:36.319Z,99020.67
2019-03-04T21:32:40.921Z,99009.84
2019-03-04T21:35:51.520Z,99013.64
2019-03-04T21:38:30.071Z,99020.33
2019-03-04T21:41:35.446Z,99017.44
2019-03-04T21:44:48.212Z,99013.44
2019-03-04T21:47:32.178Z,99011.03
2019-03-04T21:50:09.017Z,99010.72
2019-03-04T21:53:04.764Z,99008.31
2019-03-04T21:56:03.722Z,99013.33
2019-03-04T21:58:39.167Z,99011.31
2019-03-04T22:01:27.081Z,99014.80
2019-03-04T22:04:02.591Z,99013.44
2019-03-04T22:06:37.321Z,99006.47
2019-03-04T22:09:11.987Z,99006.78
2019-03-04T22:11:48.531Z,99007.69
2019-03-04T22:14:23.055Z,99014.95
2019-03-04T22:16:57.357Z,99010.50
2019-03-04T22:19:31.807Z,99000.16
2019-03-04T22:22:05.920Z,98997.95
2019-03-04T22:24:40.678Z,98998.62
2019-03-04T22:27:15.017Z,98993.58
2019-03-04T22:29:50.321Z,98993.27
2019-03-04T22:32:24.308Z,98990.47
2019-03-04T22:34:58.597Z,98984.20
2019-03-04T22:37:33.816Z,98986.39
2019-03-04T22:40:08.884Z,98980.21
2019-03-04T22:42:43.265Z,98988.80
2019-03-04T22:45:19.054Z,98983.36
2019-03-04T22:47:53.671Z,98986.02
2019-03-04T22:50:27.991Z,98984.89
2019-03-04T22:53:02.697Z,98989.64
2019-03-04T22:55:38.738Z,98992.28
2019-03-04T22:58:15.039Z,98998.03
2019-03-04T23:01:46.429Z,99003.75
2019-03-04T23:04:41.231Z,98999.31
2019-03-04T23:07:36.096Z,98991.01
2019-03-04T23:10:49.156Z,98982.84
2019-03-04T23:14:02.587Z,98982.22
2019-03-04T23:16:36.841Z,98994.23
2019-03-04T23:19:11.263Z,98990.61
2019-03-04T23:21:45.550Z,98996.81
2019-03-04T23:24:21.053Z,98995.77
2019-03-04T23:26:55.281Z,98993.05
2019-03-04T23:29:29.433Z,98994.41
2019-03-04T23:32:03.583Z,98998.03
2019-03-04T23:34:38.742Z,99002.17
2019-03-04T23:37:13.013Z,98999.22
2019-03-04T23:39:47.271Z,99013.45
2019-03-04T23:42:21.640Z,99012.37
2019-03-04T23:44:55.821Z,99005.28
2019-03-04T23:47:30.276Z,99006.64
2019-03-04T23:50:21.721Z,99008.52
2019-03-04T23:52:56.308Z,99014.18
2019-03-04T23:55:30.464Z,99027.05
2019-03-04T23:58:05.675Z,99022.25
